createdAt,value
2022-11-16T00:01:19.335Z,100699.59
2022-11-16T00:03:45.956Z,100697.97
2022-11-16T00:06:13.819Z,100679.56
2022-11-16T00:08:45.613Z,100678.56
2022-11-16T00:11:14.845Z,100675.91
2022-11-16T00:13:42.341Z,100683.88
2022-11-16T00:16:14.211Z,100685.88
2022-11-16T00:18:40.675Z,100678.91
2022-11-16T00:21:07.573Z,100666.28
2022-11-16T00:23:36.211Z,100664.19
2022-11-16T00:26:04.885Z,100662.00
2022-11-16T00:28:31.733Z,100661.53
2022-11-16T00:31:02.814Z,100650.75
2022-11-16T00:33:29.500Z,100643.91
2022-11-16T00:35:55.987Z,100638.13
2022-11-16T00:38:22.432Z,100657.84
2022-11-16T00:40:49.362Z,100657.03
2022-11-16T00:43:15.805Z,100656.66
2022-11-16T00:45:43.177Z,100655.22
2022-11-16T00:48:10.545Z,100652.56
2022-11-16T00:50:37.575Z,100674.63
2022-11-16T00:53:04.714Z,100657.31
2022-11-16T00:55:31.574Z,100653.03
2022-11-16T00:57:58.027Z,100638.75
2022-11-16T01:00:24.486Z,100644.06
2022-11-16T01:02:52.489Z,100652.66
2022-11-16T01:05:18.975Z,100644.06
2022-11-16T01:07:45.421Z,100630.00
2022-11-16T01:10:14.040Z,100635.94
2022-11-16T01:12:40.560Z,100638.41
2022-11-16T01:15:09.086Z,100631.09
2022-11-16T01:17:36.661Z,100628.25
2022-11-16T01:20:05.990Z,100613.16
2022-11-16T01:22:35.238Z,100617.94
2022-11-16T01:25:01.693Z,100617.28
2022-11-16T01:27:28.958Z,100623.22
2022-11-16T01:29:55.422Z,100616.09
2022-11-16T01:32:21.883Z,100599.03
2022-11-16T01:34:48.352Z,100620.22
2022-11-16T01:37:14.932Z,100627.19
2022-11-16T01:39:41.388Z,100613.56
2022-11-16T01:42:07.886Z,100612.91
2022-11-16T01:44:34.243Z,100619.25
2022-11-16T01:47:02.442Z,100611.94
2022-11-16T01:49:31.885Z,100604.97
2022-11-16T01:52:01.785Z,100584.78
2022-11-16T01:54:29.485Z,100599.03
2022-11-16T01:56:57.074Z,100584.78
2022-11-16T01:59:23.548Z,100577.81
2022-11-16T02:01:49.988Z,100547.66
2022-11-16T02:04:16.458Z,100555.44
2022-11-16T02:07:19.581Z,100556.69
2022-11-16T02:10:10.820Z,100563.19
2022-11-16T02:12:57.277Z,100528.53
2022-11-16T02:15:46.602Z,100543.00
2022-11-16T02:18:29.232Z,100540.13
2022-11-16T02:21:21.454Z,100532.56
2022-11-16T02:24:17.126Z,100519.31
2022-11-16T02:27:04.970Z,100521.97
2022-11-16T02:29:39.042Z,100510.16
2022-11-16T02:32:13.564Z,100510.16
2022-11-16T02:34:47.365Z,100512.00
2022-11-16T02:37:16.304Z,100510.16
2022-11-16T02:39:44.536Z,100505.66
2022-11-16T02:42:15.534Z,100505.22
2022-11-16T02:44:45.288Z,100491.31
2022-11-16T02:47:17.123Z,100502.56
2022-11-16T02:49:46.422Z,100473.75
2022-11-16T02:52:13.777Z,100492.03
2022-11-16T02:54:40.286Z,100481.06
2022-11-16T02:57:06.652Z,100467.44
2022-11-16T02:59:44.636Z,100455.22
2022-11-16T03:02:16.192Z,100475.25
2022-11-16T03:04:48.410Z,100462.63
2022-11-16T03:07:17.511Z,100454.19
2022-11-16T03:09:45.532Z,100456.75
2022-11-16T03:12:16.365Z,100460.34
2022-11-16T03:14:46.623Z,100454.34
2022-11-16T03:17:27.856Z,100452.19
2022-11-16T03:19:59.251Z,100452.19
2022-11-16T03:22:31.565Z,100455.03
2022-11-16T03:24:58.391Z,100448.75
2022-11-16T03:27:33.319Z,100455.50
2022-11-16T03:30:15.056Z,100461.16
2022-11-16T03:33:12.989Z,100456.03
2022-11-16T03:36:14.337Z,100436.66
2022-11-16T03:38:41.426Z,100465.63
2022-11-16T03:41:09.810Z,100454.56
2022-11-16T03:43:37.130Z,100430.31
2022-11-16T03:46:04.719Z,100429.34
2022-11-16T03:48:39.069Z,100438.03
2022-11-16T03:51:06.926Z,100442.50
2022-11-16T03:53:33.464Z,100427.41
2022-11-16T03:55:59.957Z,100457.78
2022-11-16T03:58:26.420Z,100451.09
2022-11-16T04:00:53.559Z,100447.81
2022-11-16T04:03:20.642Z,100449.63
2022-11-16T04:06:06.394Z,100441.66
2022-11-16T04:08:51.385Z,100439.00
2022-11-16T04:11:39.276Z,100444.91
2022-11-16T04:14:24.364Z,100458.97
2022-11-16T04:17:09.520Z,100442.03
2022-11-16T04:19:58.170Z,100457.41
2022-11-16T04:22:47.728Z,100437.00
2022-11-16T04:25:25.720Z,100443.50
2022-11-16T04:28:11.830Z,100427.59
2022-11-16T04:30:56.816Z,100430.06
2022-11-16T04:33:41.857Z,100429.69
2022-11-16T04:36:27.511Z,100428.22
2022-11-16T04:38:53.990Z,100423.94
2022-11-16T04:41:39.097Z,100443.72
2022-11-16T04:44:05.654Z,100441.88
2022-11-16T04:46:50.737Z,100440.84
2022-11-16T04:49:17.204Z,100426.13
2022-11-16T04:51:43.639Z,100430.81
2022-11-16T04:54:10.089Z,100419.56
2022-11-16T04:56:36.538Z,100410.78
2022-11-16T04:59:03.075Z,100413.28
2022-11-16T05:01:48.157Z,100433.84
2022-11-16T05:04:14.636Z,100410.38
2022-11-16T05:06:41.139Z,100418.31
2022-11-16T05:09:07.613Z,100417.03
2022-11-16T05:11:34.148Z,100417.59
2022-11-16T05:14:01.759Z,100420.88
2022-11-16T05:16:28.365Z,100426.38
2022-11-16T05:19:13.466Z,100416.78
2022-11-16T05:21:39.953Z,100420.44
2022-11-16T05:24:25.325Z,100426.09
2022-11-16T05:26:51.798Z,100417.78
2022-11-16T05:29:18.277Z,100420.81
2022-11-16T05:31:44.729Z,100407.75
2022-11-16T05:34:11.191Z,100436.06
2022-11-16T05:36:37.950Z,100409.78
2022-11-16T05:39:04.873Z,100399.34
2022-11-16T05:41:31.443Z,100408.75
2022-11-16T05:43:58.149Z,100435.44
2022-11-16T05:46:25.392Z,100421.56
2022-11-16T05:48:51.852Z,100414.06
2022-11-16T05:51:18.303Z,100416.69
2022-11-16T05:53:44.747Z,100422.00
2022-11-16T05:56:11.770Z,100426.66
2022-11-16T05:58:38.354Z,100438.91
2022-11-16T06:01:05.893Z,100430.13
2022-11-16T06:03:32.764Z,100441.09
2022-11-16T06:05:59.267Z,100445.97
2022-11-16T06:08:25.714Z,100452.47
2022-11-16T06:10:52.184Z,100457.38
2022-11-16T06:13:18.661Z,100462.31
2022-11-16T06:15:50.468Z,100456.91
2022-11-16T06:18:16.924Z,100465.41
2022-11-16T06:20:43.432Z,100479.69
2022-11-16T06:23:09.872Z,100468.91
2022-11-16T06:25:38.637Z,100474.22
2022-11-16T06:28:07.843Z,100486.00
2022-11-16T06:30:34.841Z,100491.28
2022-11-16T06:33:01.289Z,100506.91
2022-11-16T06:35:27.754Z,100483.69
2022-11-16T06:37:54.233Z,100483.69
2022-11-16T06:40:20.692Z,100489.63
2022-11-16T06:42:47.145Z,100488.16
2022-11-16T06:45:13.604Z,100472.66
2022-11-16T06:47:40.064Z,100486.06
2022-11-16T06:50:06.874Z,100476.50
2022-11-16T06:52:33.346Z,100476.66
2022-11-16T06:54:59.825Z,100488.06
2022-11-16T06:57:26.523Z,100501.03
2022-11-16T06:59:53.010Z,100493.75
2022-11-16T07:02:21.290Z,100491.91
2022-11-16T07:04:47.774Z,100497.75
2022-11-16T07:07:16.093Z,100488.19
2022-11-16T07:09:44.493Z,100487.16
2022-11-16T07:12:11.014Z,100481.03
2022-11-16T07:14:37.496Z,100493.84
2022-11-16T07:17:09.110Z,100492.56
2022-11-16T07:19:36.710Z,100497.47
2022-11-16T07:22:04.250Z,100495.19
2022-11-16T07:24:30.802Z,100524.34
2022-11-16T07:26:57.532Z,100493.19
2022-11-16T07:29:24.493Z,100502.59
2022-11-16T07:31:51.056Z,100514.81
2022-11-16T07:34:17.511Z,100499.59
2022-11-16T07:36:44.470Z,100522.13
2022-11-16T07:39:10.948Z,100518.00
2022-11-16T07:41:42.386Z,100508.06
2022-11-16T07:44:12.020Z,100515.03
2022-11-16T07:46:47.918Z,100524.59
2022-11-16T07:49:16.043Z,100530.38
2022-11-16T07:51:43.057Z,100516.75
2022-11-16T07:54:16.235Z,100512.28
2022-11-16T07:56:42.757Z,100509.47
2022-11-16T07:59:09.245Z,100520.06
2022-11-16T08:01:35.777Z,100502.34
2022-11-16T08:04:02.605Z,100520.69
2022-11-16T08:06:30.877Z,100528.28
2022-11-16T08:08:58.955Z,100518.66
2022-11-16T08:11:25.947Z,100508.06
2022-11-16T08:13:52.441Z,100518.78
2022-11-16T08:16:21.646Z,100518.41
2022-11-16T08:18:48.585Z,100511.94
2022-11-16T08:21:16.117Z,100519.31
2022-11-16T08:23:42.693Z,100502.03
2022-11-16T08:26:15.211Z,100519.50
2022-11-16T08:28:43.079Z,100519.31
2022-11-16T08:31:12.708Z,100535.22
2022-11-16T08:33:39.165Z,100515.91
2022-11-16T08:36:13.605Z,100516.72
2022-11-16T08:38:40.579Z,100513.19
2022-11-16T08:41:07.530Z,100508.31
2022-11-16T08:43:34.071Z,100516.28
2022-11-16T08:46:00.709Z,100482.06
2022-11-16T08:48:27.292Z,100491.47
2022-11-16T08:51:16.423Z,100513.00
2022-11-16T08:53:40.703Z,100479.44
2022-11-16T08:56:14.447Z,100485.97
2022-11-16T08:58:43.525Z,100499.63
2022-11-16T09:01:12.297Z,100478.59
2022-11-16T09:03:38.950Z,100469.81
2022-11-16T09:06:06.641Z,100479.22
2022-11-16T09:08:33.995Z,100472.28
2022-11-16T09:11:04.165Z,100475.13
2022-11-16T09:13:30.645Z,100475.13
2022-11-16T09:16:01.086Z,100476.97
2022-11-16T09:18:28.123Z,100475.28
2022-11-16T09:20:54.954Z,100502.44
2022-11-16T09:23:25.367Z,100477.13
2022-11-16T09:25:52.844Z,100470.75
2022-11-16T09:28:19.623Z,100485.34
2022-11-16T09:30:46.984Z,100481.25
2022-11-16T09:33:13.490Z,100482.28
2022-11-16T09:35:39.974Z,100483.81
2022-11-16T09:38:06.788Z,100487.22
2022-11-16T09:40:45.360Z,100478.81
2022-11-16T09:43:33.340Z,100470.88
2022-11-16T09:46:22.830Z,100474.72
2022-11-16T09:48:49.999Z,100472.69
2022-11-16T09:51:18.756Z,100476.63
2022-11-16T09:53:46.294Z,100461.72
2022-11-16T09:56:22.097Z,100463.72
2022-11-16T09:58:48.765Z,100474.31
2022-11-16T10:01:28.774Z,100464.56
2022-11-16T10:04:31.009Z,100460.09
2022-11-16T10:07:01.008Z,100482.91
2022-11-16T10:09:27.948Z,100442.19
2022-11-16T10:12:26.751Z,100450.75
2022-11-16T10:15:09.396Z,100439.53
2022-11-16T10:18:07.655Z,100450.75
2022-11-16T10:21:05.752Z,100451.59
2022-11-16T10:23:53.104Z,100454.97
2022-11-16T10:26:28.550Z,100449.09
2022-11-16T10:29:19.178Z,100461.91
2022-11-16T10:32:07.340Z,100445.00
2022-11-16T10:34:45.559Z,100461.72
2022-11-16T10:37:13.325Z,100497.19
2022-11-16T10:39:41.067Z,100471.50
2022-11-16T10:42:12.594Z,100458.44
2022-11-16T10:44:42.964Z,100481.13
2022-11-16T10:47:18.528Z,100477.81
2022-11-16T10:49:57.950Z,100475.53
2022-11-16T10:52:25.239Z,100487.97
2022-11-16T10:54:52.709Z,100475.53
2022-11-16T10:57:19.397Z,100463.47
2022-11-16T10:59:53.617Z,100479.38
2022-11-16T11:02:23.054Z,100485.03
2022-11-16T11:05:05.384Z,100475.09
2022-11-16T11:07:35.638Z,100459.38
2022-11-16T11:10:02.498Z,100473.81
2022-11-16T11:12:37.862Z,100468.97
2022-11-16T11:15:26.109Z,100479.09
2022-11-16T11:18:23.408Z,100487.53
2022-11-16T11:20:52.485Z,100492.19
2022-11-16T11:23:22.455Z,100472.81
2022-11-16T11:25:54.371Z,100474.19
2022-11-16T11:28:28.545Z,100479.09
2022-11-16T11:31:01.276Z,100471.34
2022-11-16T11:33:42.272Z,100480.28
2022-11-16T11:36:18.744Z,100460.94
2022-11-16T11:39:06.916Z,100473.38
2022-11-16T11:41:43.192Z,100462.94
2022-11-16T11:44:12.458Z,100469.25
2022-11-16T11:47:23.650Z,100474.72
2022-11-16T11:49:33.891Z,100475.75
2022-11-16T11:52:06.410Z,100470.63
2022-11-16T11:54:35.805Z,100459.84
2022-11-16T11:57:03.233Z,100474.09
2022-11-16T11:59:29.902Z,100463.66
2022-11-16T12:02:30.389Z,100469.97
2022-11-16T12:05:00.714Z,100469.56
2022-11-16T12:07:43.284Z,100457.47
2022-11-16T12:10:26.206Z,100468.69
2022-11-16T12:13:24.363Z,100463.13
2022-11-16T12:16:10.021Z,100461.25
2022-11-16T12:19:05.078Z,100475.69
2022-11-16T12:21:31.416Z,100459.84
2022-11-16T12:24:24.142Z,100458.94
2022-11-16T12:27:09.406Z,100477.09
2022-11-16T12:30:02.679Z,100491.25
2022-11-16T12:32:53.780Z,100477.75
2022-11-16T12:35:33.670Z,100491.88
2022-11-16T12:38:12.481Z,100494.31
2022-11-16T12:40:58.133Z,100503.81
2022-11-16T12:43:39.735Z,100510.13
2022-11-16T12:46:18.374Z,100512.56
2022-11-16T12:49:00.442Z,100524.69
2022-11-16T12:51:53.203Z,100513.31
2022-11-16T12:54:52.260Z,100504.22
2022-11-16T12:57:40.981Z,100524.75
2022-11-16T13:00:13.774Z,100523.28
2022-11-16T13:02:51.082Z,100533.41
2022-11-16T13:05:21.322Z,100529.63
2022-11-16T13:07:50.783Z,100535.56
2022-11-16T13:10:24.880Z,100531.13
2022-11-16T13:13:03.943Z,100532.47
2022-11-16T13:15:40.557Z,100539.75
2022-11-16T13:18:11.744Z,100539.31
2022-11-16T13:20:47.157Z,100538.47
2022-11-16T13:23:22.830Z,100543.41
2022-11-16T13:26:10.271Z,100541.75
2022-11-16T13:28:44.424Z,100559.91
2022-11-16T13:31:15.701Z,100543.06
2022-11-16T13:33:50.590Z,100542.25
2022-11-16T13:36:36.956Z,100539.09
2022-11-16T13:39:04.547Z,100538.47
2022-11-16T13:41:36.245Z,100544.09
2022-11-16T13:44:05.821Z,100549.22
2022-11-16T13:46:56.202Z,100540.81
2022-11-16T13:49:38.055Z,100541.69
2022-11-16T13:52:22.792Z,100542.22
2022-11-16T13:54:52.833Z,100546.84
2022-11-16T13:57:25.950Z,100537.44
2022-11-16T14:00:08.589Z,100541.09
2022-11-16T14:02:40.166Z,100557.13
2022-11-16T14:05:12.597Z,100558.97
2022-11-16T14:07:47.968Z,100564.72
2022-11-16T14:10:32.593Z,100562.56
2022-11-16T14:13:06.270Z,100575.81
2022-11-16T14:15:37.278Z,100580.28
2022-11-16T14:18:09.600Z,100558.31
2022-11-16T14:20:56.167Z,100573.66
2022-11-16T14:23:30.165Z,100569.75
2022-11-16T14:26:02.511Z,100569.09
2022-11-16T14:28:43.736Z,100580.66
2022-11-16T14:31:15.159Z,100570.91
2022-11-16T14:33:42.135Z,100575.91
2022-11-16T14:36:09.949Z,100579.53
2022-11-16T14:38:41.732Z,100578.88
2022-11-16T14:41:22.566Z,100579.53
2022-11-16T14:43:54.226Z,100577.91
2022-11-16T14:46:29.997Z,100581.88
2022-11-16T14:48:58.178Z,100575.75
2022-11-16T14:51:45.469Z,100569.66
2022-11-16T14:54:16.502Z,100582.69
2022-11-16T14:56:59.445Z,100574.25
2022-11-16T14:59:26.247Z,100578.53
2022-11-16T15:01:53.261Z,100584.47
2022-11-16T15:04:20.819Z,100576.38
2022-11-16T15:06:53.561Z,100576.66
2022-11-16T15:09:24.522Z,100569.25
2022-11-16T15:12:09.549Z,100564.63
2022-11-16T15:14:44.616Z,100566.75
2022-11-16T15:17:19.896Z,100579.16
2022-11-16T15:19:56.911Z,100570.56
2022-11-16T15:22:25.960Z,100575.69
2022-11-16T15:25:00.032Z,100567.41
2022-11-16T15:27:41.101Z,100581.75
2022-11-16T15:30:21.310Z,100565.75
2022-11-16T15:32:50.883Z,100571.69
2022-11-16T15:35:23.985Z,100569.53
2022-11-16T15:38:15.430Z,100574.53
2022-11-16T15:40:49.434Z,100563.28
2022-11-16T15:43:16.174Z,100557.34
2022-11-16T15:45:43.080Z,100579.09
2022-11-16T15:48:18.009Z,100561.00
2022-11-16T15:51:04.648Z,100570.25
2022-11-16T15:53:40.177Z,100558.38
2022-11-16T15:56:10.688Z,100575.06
2022-11-16T15:58:39.346Z,100563.81
2022-11-16T16:01:05.934Z,100567.47
2022-11-16T16:03:34.836Z,100571.50
2022-11-16T16:06:01.737Z,100572.47
2022-11-16T16:08:38.373Z,100572.16
2022-11-16T16:11:14.801Z,100590.34
2022-11-16T16:13:56.169Z,100586.75
2022-11-16T16:16:28.208Z,100601.63
2022-11-16T16:18:58.099Z,100581.84
2022-11-16T16:21:26.008Z,100599.34
2022-11-16T16:23:54.360Z,100605.44
2022-11-16T16:26:22.385Z,100619.66
2022-11-16T16:28:49.209Z,100614.38
2022-11-16T16:31:17.302Z,100609.91
2022-11-16T16:33:43.766Z,100597.50
2022-11-16T16:36:13.675Z,100598.50
2022-11-16T16:38:40.150Z,100594.03
2022-11-16T16:41:07.006Z,100592.72
2022-11-16T16:43:34.037Z,100589.06
2022-11-16T16:46:02.074Z,100657.72
2022-11-16T16:48:28.664Z,100588.16
2022-11-16T16:50:55.157Z,100560.25
2022-11-16T16:53:21.660Z,100540.13
2022-11-16T16:55:48.873Z,100540.81
2022-11-16T16:58:15.414Z,100515.75
2022-11-16T17:00:42.090Z,100504.81
2022-11-16T17:03:08.723Z,100494.84
2022-11-16T17:05:35.744Z,100478.66
2022-11-16T17:08:02.198Z,100485.59
2022-11-16T17:10:28.670Z,100460.03
2022-11-16T17:12:55.755Z,100457.13
2022-11-16T17:15:22.802Z,100451.56
2022-11-16T17:17:49.291Z,100447.56
2022-11-16T17:20:16.346Z,100439.03
2022-11-16T17:22:43.454Z,100430.38
2022-11-16T17:25:10.518Z,100433.66
2022-11-16T17:27:37.091Z,100433.09
2022-11-16T17:30:04.143Z,100424.09
2022-11-16T17:32:32.693Z,100421.38
2022-11-16T17:34:59.232Z,100418.94
2022-11-16T17:37:25.689Z,100415.44
2022-11-16T17:39:52.310Z,100420.63
2022-11-16T17:42:18.768Z,100420.78
2022-11-16T17:44:45.237Z,100429.69
2022-11-16T17:47:12.897Z,100416.19
2022-11-16T17:49:39.467Z,100425.31
2022-11-16T17:52:06.176Z,100405.13
2022-11-16T17:54:32.658Z,100397.97
2022-11-16T17:56:59.122Z,100401.78
2022-11-16T17:59:29.557Z,100379.38
2022-11-16T18:01:57.803Z,100404.94
2022-11-16T18:04:24.420Z,100394.94
2022-11-16T18:06:51.026Z,100395.25
2022-11-16T18:09:18.619Z,100392.59
2022-11-16T18:11:45.087Z,100387.69
2022-11-16T18:14:11.533Z,100381.34
2022-11-16T18:16:40.955Z,100375.16
2022-11-16T18:19:07.400Z,100365.56
2022-11-16T18:21:41.240Z,100358.91
2022-11-16T18:24:08.133Z,100349.25
2022-11-16T18:26:34.701Z,100339.16
2022-11-16T18:29:01.178Z,100338.97
2022-11-16T18:31:27.824Z,100334.25
2022-11-16T18:34:01.089Z,100338.88
2022-11-16T18:36:27.635Z,100323.31
2022-11-16T18:38:54.184Z,100313.59
2022-11-16T18:41:23.468Z,100333.56
2022-11-16T18:43:55.284Z,100333.34
2022-11-16T18:46:32.683Z,100325.38
2022-11-16T18:48:59.414Z,100335.25
2022-11-16T18:51:27.108Z,100343.03
2022-11-16T18:53:53.865Z,100339.53
2022-11-16T18:56:20.601Z,100338.53
2022-11-16T18:58:52.483Z,100327.22
2022-11-16T19:01:22.095Z,100336.16
2022-11-16T19:03:48.848Z,100347.56
2022-11-16T19:06:17.048Z,100318.47
2022-11-16T19:08:46.880Z,100328.03
2022-11-16T19:11:16.883Z,100313.50
2022-11-16T19:13:44.262Z,100322.34
2022-11-16T19:16:12.797Z,100307.16
2022-11-16T19:18:39.467Z,100309.97
2022-11-16T19:21:10.271Z,100308.75
2022-11-16T19:23:44.376Z,100313.84
2022-11-16T19:26:12.836Z,100312.81
2022-11-16T19:28:40.879Z,100307.16
2022-11-16T19:31:11.154Z,100289.63
2022-11-16T19:33:38.344Z,100307.50
2022-11-16T19:36:19.041Z,100300.66
2022-11-16T19:38:46.986Z,100292.06
2022-11-16T19:41:15.113Z,100289.38
2022-11-16T19:43:41.796Z,100294.28
2022-11-16T19:46:21.137Z,100290.19
2022-11-16T19:48:49.404Z,100304.84
2022-11-16T19:51:20.986Z,100295.63
2022-11-16T19:53:47.769Z,100298.03
2022-11-16T19:56:16.509Z,100271.13
2022-11-16T19:58:43.061Z,100284.91
2022-11-16T20:01:35.928Z,100286.47
2022-11-16T20:04:05.836Z,100300.69
2022-11-16T20:06:35.358Z,100281.13
2022-11-16T20:09:08.707Z,100284.19
2022-11-16T20:11:35.809Z,100289.75
2022-11-16T20:14:04.036Z,100281.88
2022-11-16T20:16:39.445Z,100287.81
2022-11-16T20:19:08.237Z,100262.19
2022-11-16T20:21:36.808Z,100270.06
2022-11-16T20:24:06.743Z,100269.66
2022-11-16T20:26:34.911Z,100266.94
2022-11-16T20:29:01.433Z,100274.06
2022-11-16T20:31:30.364Z,100269.38
2022-11-16T20:33:58.489Z,100275.88
2022-11-16T20:36:26.671Z,100271.34
2022-11-16T20:38:53.273Z,100274.75
2022-11-16T20:41:21.737Z,100262.06
2022-11-16T20:43:51.421Z,100274.75
2022-11-16T20:46:18.983Z,100254.88
2022-11-16T20:48:45.569Z,100231.94
2022-11-16T20:51:14.030Z,100258.03
2022-11-16T20:53:40.491Z,100265.81
2022-11-16T20:56:09.802Z,100260.09
2022-11-16T20:58:36.795Z,100252.34
2022-11-16T21:01:05.925Z,100252.75
2022-11-16T21:03:32.562Z,100242.53
2022-11-16T21:05:59.254Z,100256.03
2022-11-16T21:08:26.427Z,100254.69
2022-11-16T21:10:53.589Z,100234.69
2022-11-16T21:13:38.997Z,100262.06
2022-11-16T21:16:07.928Z,100246.72
2022-11-16T21:18:34.754Z,100243.28
2022-11-16T21:21:06.516Z,100238.22
2022-11-16T21:23:34.543Z,100235.38
2022-11-16T21:26:14.179Z,100228.16
2022-11-16T21:28:41.535Z,100215.47
2022-11-16T21:31:11.261Z,100232.91
2022-11-16T21:33:38.036Z,100249.97
2022-11-16T21:36:14.184Z,100234.97
2022-11-16T21:38:40.876Z,100225.41
2022-11-16T21:41:07.996Z,100246.44
2022-11-16T21:43:38.022Z,100222.50
2022-11-16T21:46:06.930Z,100239.97
2022-11-16T21:48:36.824Z,100230.84
2022-11-16T21:51:05.477Z,100204.13
2022-11-16T21:53:32.581Z,100229.06
2022-11-16T21:55:59.209Z,100251.22
2022-11-16T21:58:26.015Z,100259.88
2022-11-16T22:01:00.438Z,100265.16
2022-11-16T22:03:29.025Z,100279.78
2022-11-16T22:06:15.960Z,100254.13
2022-11-16T22:08:42.612Z,100227.94
2022-11-16T22:11:09.571Z,100222.13
2022-11-16T22:13:37.149Z,100238.50
2022-11-16T22:16:15.055Z,100235.91
2022-11-16T22:18:42.106Z,100221.31
2022-11-16T22:21:08.937Z,100218.66
2022-11-16T22:23:35.876Z,100237.09
2022-11-16T22:26:05.886Z,100231.81
2022-11-16T22:28:33.169Z,100217.69
2022-11-16T22:31:05.076Z,100213.88
2022-11-16T22:33:32.556Z,100234.75
2022-11-16T22:35:59.449Z,100245.69
2022-11-16T22:38:26.229Z,100233.03
2022-11-16T22:40:53.909Z,100222.09
2022-11-16T22:43:21.502Z,100225.63
2022-11-16T22:45:48.198Z,100246.97
2022-11-16T22:48:14.838Z,100233.19
2022-11-16T22:50:42.081Z,100236.56
2022-11-16T22:53:11.871Z,100249.59
2022-11-16T22:55:38.597Z,100236.19
2022-11-16T22:58:05.482Z,100248.06
2022-11-16T23:00:37.468Z,100242.75
2022-11-16T23:03:07.479Z,100252.78
2022-11-16T23:05:34.168Z,100232.09
2022-11-16T23:08:00.605Z,100239.47
2022-11-16T23:10:27.092Z,100221.25
2022-11-16T23:13:12.322Z,100210.06
2022-11-16T23:15:50.636Z,100218.78
2022-11-16T23:18:19.130Z,100218.78
2022-11-16T23:21:04.291Z,100221.16
2022-11-16T23:23:49.209Z,100228.91
2022-11-16T23:26:40.811Z,100219.59
2022-11-16T23:29:09.184Z,100221.06
2022-11-16T23:31:36.599Z,100217.78
2022-11-16T23:34:03.191Z,100203.09
2022-11-16T23:36:29.727Z,100193.63
2022-11-16T23:38:56.208Z,100210.59
2022-11-16T23:41:41.277Z,100212.69
2022-11-16T23:44:07.745Z,100210.59
2022-11-16T23:46:34.277Z,100195.72
2022-11-16T23:49:00.809Z,100203.09
2022-11-16T23:51:27.494Z,100213.59
2022-11-16T23:53:54.241Z,100203.03
2022-11-16T23:56:23.067Z,100208.00
2022-11-16T23:58:49.636Z,100191.06
